Time;durP1;ratioP1;P1;durP2;ratioP2;P2;SDS_P1;SDS_P2;PMS_P1;PMS_P2;Temp;Humidity;BMP_temperature;BMP_pressure;BME280_temperature;BME280_humidity;BME280_pressure;Samples;Min_cycle;Max_cycle;Signal;HPM_P1;HPM_P2
2023/02/10 00:01:20;;;;;;;182.57;85.42;;;;;;;-6.48;78.50;102559.75;1427472;91;21380;-80
2023/02/10 00:03:48;;;;;;;177.07;83.82;;;;;;;-6.51;78.03;102563.59;1431112;90;22333;-81
2023/02/10 00:06:17;;;;;;;179.20;84.80;;;;;;;-6.52;77.24;102568.75;1426072;91;21438;-80
2023/02/10 00:08:50;;;;;;;178.30;83.17;;;;;;;-6.52;77.11;102559.30;1430864;91;21482;-80
2023/02/10 00:11:17;;;;;;;192.15;83.12;;;;;;;-6.50;76.91;102552.46;1439236;89;22237;-80
2023/02/10 00:13:45;;;;;;;176.53;82.70;;;;;;;-6.52;77.05;102554.16;1437162;90;21461;-80
2023/02/10 00:16:15;;;;;;;176.10;87.00;;;;;;;-6.56;76.85;102557.53;1435840;90;21505;-81
2023/02/10 00:18:42;;;;;;;148.57;74.72;;;;;;;-6.58;76.83;102561.83;1436962;91;22425;-80
2023/02/10 00:21:14;;;;;;;177.90;83.65;;;;;;;-6.58;76.41;102564.41;1440646;90;21600;-80
2023/02/10 00:23:41;;;;;;;181.32;81.47;;;;;;;-6.61;75.82;102560.09;1433875;90;21542;-80
2023/02/10 00:26:11;;;;;;;177.82;84.75;;;;;;;-6.63;76.12;102554.48;1435118;90;22390;-80
2023/02/10 00:28:37;;;;;;;166.92;81.82;;;;;;;-6.67;77.12;102554.89;1438011;90;22583;-80
2023/02/10 00:31:10;;;;;;;170.70;82.22;;;;;;;-6.69;77.04;102549.28;1434657;91;21341;-81
2023/02/10 00:33:36;;;;;;;161.82;77.78;;;;;;;-6.72;76.78;102555.27;1440827;90;21512;-79
2023/02/10 00:36:06;;;;;;;159.22;80.65;;;;;;;-6.74;77.06;102545.79;1439642;90;21511;-79
2023/02/10 00:38:34;;;;;;;168.47;80.12;;;;;;;-6.73;77.04;102548.39;1432958;91;21561;-78
2023/02/10 00:41:12;;;;;;;169.70;80.83;;;;;;;-6.75;77.22;102549.23;1438596;91;21407;-80
2023/02/10 00:43:43;;;;;;;155.75;73.65;;;;;;;-6.77;76.75;102549.63;1437379;90;22236;-78
2023/02/10 00:46:11;;;;;;;168.52;80.75;;;;;;;-6.82;77.13;102549.17;1439412;90;21371;-80
2023/02/10 00:48:38;;;;;;;163.30;75.90;;;;;;;-6.86;77.82;102554.27;1436835;90;22310;-80
2023/02/10 00:51:05;;;;;;;163.70;82.47;;;;;;;-6.89;77.93;102549.94;1424830;90;21653;-79
2023/02/10 00:53:32;;;;;;;162.20;77.97;;;;;;;-6.89;77.55;102557.67;1433805;90;21386;-80
2023/02/10 00:55:59;;;;;;;159.30;78.62;;;;;;;-6.90;78.19;102548.23;1429477;91;22155;-79
2023/02/10 00:58:26;;;;;;;174.77;82.35;;;;;;;-6.92;78.58;102554.20;1443925;90;21401;-79
2023/02/10 01:00:53;;;;;;;166.77;79.45;;;;;;;-6.93;78.64;102560.19;1436635;90;21556;-79
2023/02/10 01:03:20;;;;;;;155.40;74.97;;;;;;;-6.99;78.79;102556.27;1438444;90;22266;-78
2023/02/10 01:05:46;;;;;;;182.65;81.55;;;;;;;-6.98;78.45;102558.87;1432780;91;21550;-79
2023/02/10 01:08:14;;;;;;;179.93;82.75;;;;;;;-7.02;79.12;102555.80;1432994;90;21408;-79
2023/02/10 01:10:41;;;;;;;172.02;83.27;;;;;;;-7.05;78.72;102552.80;1433551;91;22250;-79
2023/02/10 01:13:10;;;;;;;181.93;85.57;;;;;;;-7.08;78.92;102555.73;1435541;90;21563;-79
2023/02/10 01:15:38;;;;;;;165.35;78.97;;;;;;;-7.06;77.97;102555.34;1441241;90;21386;-79
2023/02/10 01:18:04;;;;;;;171.35;83.07;;;;;;;-7.02;77.42;102554.52;1436559;91;22412;-80
2023/02/10 01:20:30;;;;;;;165.65;79.22;;;;;;;-7.01;76.96;102560.55;1433440;90;21401;-79
2023/02/10 01:22:56;;;;;;;163.68;78.60;;;;;;;-7.03;77.40;102560.52;1444608;90;21336;-79
2023/02/10 01:25:23;;;;;;;171.45;79.62;;;;;;;-7.07;78.23;102566.07;1442004;90;21362;-79
2023/02/10 01:27:49;;;;;;;161.95;75.80;;;;;;;-7.06;77.65;102563.06;1434752;91;21463;-80
2023/02/10 01:30:15;;;;;;;163.82;78.92;;;;;;;-7.12;77.50;102557.86;1440992;90;22295;-79
2023/02/10 01:32:41;;;;;;;167.45;78.00;;;;;;;-7.14;77.31;102565.97;1431835;91;21326;-80
2023/02/10 01:35:08;;;;;;;176.72;84.35;;;;;;;-7.16;76.88;102556.08;1430101;90;21351;-79
2023/02/10 01:37:37;;;;;;;170.60;79.95;;;;;;;-7.19;77.34;102548.32;1435724;90;21415;-80
2023/02/10 01:40:03;;;;;;;165.47;79.58;;;;;;;-7.15;77.09;102553.96;1433083;91;21593;-80
2023/02/10 01:42:30;;;;;;;163.82;78.57;;;;;;;-7.13;76.69;102549.70;1434535;90;21605;-80
2023/02/10 01:45:05;;;;;;;170.92;83.50;;;;;;;-7.13;76.62;102542.84;1440107;91;21356;-79
2023/02/10 01:47:31;;;;;;;171.37;78.83;;;;;;;-7.17;76.99;102538.92;1419234;91;21504;-80
2023/02/10 01:49:58;;;;;;;165.52;76.42;;;;;;;-7.13;76.51;102536.41;1435543;90;22413;-81
2023/02/10 01:52:29;;;;;;;163.30;77.20;;;;;;;-7.09;76.83;102534.72;1432045;91;21326;-81
2023/02/10 01:55:03;;;;;;;126.02;63.42;;;;;;;-7.18;77.58;102530.77;1434513;89;22035;-80
2023/02/10 01:57:30;;;;;;;161.15;77.87;;;;;;;-7.26;77.80;102539.25;1439195;91;21415;-80
2023/02/10 01:59:58;;;;;;;169.15;77.78;;;;;;;-7.36;77.99;102534.86;1436296;90;21385;-79
2023/02/10 02:02:25;;;;;;;165.77;77.95;;;;;;;-7.46;78.76;102530.88;1432808;91;21474;-80
2023/02/10 02:04:56;;;;;;;179.95;81.50;;;;;;;-7.48;78.62;102535.98;1422588;91;21363;-81
2023/02/10 02:07:27;;;;;;;163.72;75.57;;;;;;;-7.52;79.59;102532.95;1437170;91;22332;-80
2023/02/10 02:09:57;;;;;;;168.07;77.40;;;;;;;-7.54;79.59;102539.77;1437149;91;21974;-80
2023/02/10 02:12:45;;;;;;;172.35;82.37;;;;;;;-7.56;79.54;102536.34;1440940;90;21354;-80
2023/02/10 02:15:36;;;;;;;176.60;77.80;;;;;;;-7.54;79.27;102535.91;1435552;91;22352;-79
2023/02/10 02:18:17;;;;;;;173.50;81.90;;;;;;;-7.49;78.25;102535.55;1440344;91;21437;-80
2023/02/10 02:21:24;;;;;;;166.73;80.53;;;;;;;-7.46;77.94;102529.16;1438672;91;21757;-80
2023/02/10 02:24:02;;;;;;;172.50;78.95;;;;;;;-7.49;78.30;102527.41;1431600;90;21575;-80
2023/02/10 02:26:49;;;;;;;160.70;73.67;;;;;;;-7.45;77.91;102530.91;1434355;90;21512;-80
2023/02/10 02:29:49;;;;;;;158.05;76.00;;;;;;;-7.41;78.13;102528.80;1435131;91;21356;-82
2023/02/10 02:32:22;;;;;;;158.47;73.05;;;;;;;-7.39;77.96;102529.69;1432807;91;21578;-80
2023/02/10 02:35:02;;;;;;;164.93;73.78;;;;;;;-7.36;78.48;102527.58;1432667;90;21416;-81
2023/02/10 02:37:33;;;;;;;151.82;74.65;;;;;;;-7.34;78.39;102528.44;1433446;91;22443;-80
2023/02/10 02:39:59;;;;;;;155.15;74.27;;;;;;;-7.29;78.37;102527.64;1437501;90;21512;-80
2023/02/10 02:42:29;;;;;;;154.85;72.90;;;;;;;-7.22;77.96;102523.84;1432292;91;21459;-80
2023/02/10 02:45:13;;;;;;;152.90;75.37;;;;;;;-7.24;77.74;102522.56;1431439;90;21573;-80
2023/02/10 02:47:57;;;;;;;150.60;70.15;;;;;;;-7.23;77.09;102519.13;1435062;91;22509;-79
2023/02/10 02:50:47;;;;;;;151.63;72.12;;;;;;;-7.21;76.59;102503.29;1425349;91;21474;-80
2023/02/10 02:53:39;;;;;;;139.92;66.75;;;;;;;-7.21;76.84;102511.44;1421131;91;21548;-80
2023/02/10 02:56:32;;;;;;;142.32;65.42;;;;;;;-7.21;77.56;102509.72;1419011;91;21456;-81
2023/02/10 02:59:10;;;;;;;127.47;62.38;;;;;;;-7.20;78.26;102502.44;1432797;90;21592;-81
2023/02/10 03:01:51;;;;;;;142.85;65.55;;;;;;;-7.17;78.34;102497.74;1438021;90;21530;-81
2023/02/10 03:04:18;;;;;;;;;;;;;;;-7.16;79.17;102494.31;1435233;91;21504;-81
2023/02/10 03:06:44;;;;;;;131.00;61.70;;;;;;;-7.12;79.58;102503.80;1439203;90;20431;-81
2023/02/10 03:09:11;;;;;;;138.75;65.20;;;;;;;-7.08;79.35;102499.11;1438704;91;21342;-81
2023/02/10 03:11:38;;;;;;;130.57;63.08;;;;;;;-7.07;79.35;102503.44;1433627;90;21364;-81
2023/02/10 03:14:04;;;;;;;126.90;63.02;;;;;;;-7.04;79.00;102502.18;1430921;90;21378;-81
2023/02/10 03:16:30;;;;;;;127.40;62.00;;;;;;;-7.06;78.91;102503.86;1437639;90;21371;-81
2023/02/10 03:18:56;;;;;;;128.07;60.30;;;;;;;-7.06;79.08;102503.44;1433727;90;22361;-81
2023/02/10 03:21:23;;;;;;;125.35;61.75;;;;;;;-7.09;78.64;102503.84;1436929;91;21452;-82
2023/02/10 03:23:49;;;;;;;127.97;60.43;;;;;;;-7.14;78.64;102502.92;1438446;90;21616;-80
2023/02/10 03:26:16;;;;;;;121.57;58.13;;;;;;;-7.13;78.23;102502.09;1438093;90;21445;-78
2023/02/10 03:28:42;;;;;;;123.90;58.92;;;;;;;-7.12;78.25;102509.81;1439021;91;21522;-79
2023/02/10 03:31:09;;;;;;;120.77;60.25;;;;;;;-7.16;79.25;102509.75;1442370;91;21393;-79
2023/02/10 03:33:35;;;;;;;125.75;60.60;;;;;;;-7.17;78.96;102518.33;1436165;91;21454;-79
2023/02/10 03:36:02;;;;;;;124.00;61.95;;;;;;;-7.13;78.68;102522.69;1438959;90;21439;-79
2023/02/10 03:38:29;;;;;;;135.05;67.12;;;;;;;-7.09;78.53;102520.56;1440477;91;21645;-80
2023/02/10 03:40:55;;;;;;;124.10;60.45;;;;;;;-7.06;77.83;102518.88;1440380;90;21468;-79
2023/02/10 03:43:23;;;;;;;133.05;62.25;;;;;;;-7.05;77.36;102518.45;1438356;90;21437;-79
2023/02/10 03:45:49;;;;;;;104.05;51.95;;;;;;;-7.07;77.23;102521.45;1436911;90;21334;-79
2023/02/10 03:48:15;;;;;;;114.97;54.53;;;;;;;-7.05;77.38;102523.20;1434556;90;21342;-79
2023/02/10 03:50:42;;;;;;;113.25;58.00;;;;;;;-7.02;77.43;102531.34;1429988;90;21370;-78
2023/02/10 03:53:09;;;;;;;114.88;54.55;;;;;;;-7.08;77.12;102528.72;1441198;90;22311;-80
2023/02/10 03:55:35;;;;;;;117.45;57.70;;;;;;;-7.16;76.81;102538.95;1443117;90;21519;-78
2023/02/10 03:58:01;;;;;;;106.15;54.50;;;;;;;-7.21;76.14;102530.73;1437565;91;21393;-80
2023/02/10 04:00:29;;;;;;;124.50;58.60;;;;;;;-7.23;75.99;102513.12;1436525;90;22229;-79
2023/02/10 04:02:56;;;;;;;106.10;55.98;;;;;;;-7.26;76.05;102519.95;1436807;91;21341;-80
2023/02/10 04:05:22;;;;;;;112.52;56.68;;;;;;;-7.30;75.95;102500.20;1436571;91;22420;-79
2023/02/10 04:07:49;;;;;;;115.05;55.58;;;;;;;-7.34;75.91;102496.27;1437904;90;21327;-78
2023/02/10 04:10:15;;;;;;;111.62;57.25;;;;;;;-7.38;76.62;102495.39;1434824;91;21563;-78
2023/02/10 04:12:41;;;;;;;100.10;51.08;;;;;;;-7.39;76.93;102489.81;1435941;91;21697;-79
2023/02/10 04:15:08;;;;;;;107.50;56.30;;;;;;;-7.35;76.88;102479.12;1431981;90;21533;-78
2023/02/10 04:17:34;;;;;;;82.90;44.50;;;;;;;-7.28;77.55;102471.50;1437713;90;22324;-78
2023/02/10 04:20:01;;;;;;;89.15;45.10;;;;;;;-7.23;77.41;102468.09;1436443;90;21356;-79
2023/02/10 04:22:27;;;;;;;86.37;45.78;;;;;;;-7.16;77.79;102466.00;1433943;90;21511;-78
2023/02/10 04:24:53;;;;;;;97.02;49.70;;;;;;;-7.09;77.91;102475.52;1435654;90;22406;-78
2023/02/10 04:27:19;;;;;;;87.60;46.18;;;;;;;-7.02;78.36;102483.73;1432392;91;21572;-79
2023/02/10 04:29:45;;;;;;;80.20;41.48;;;;;;;-6.94;78.22;102472.22;1438509;90;21401;-78
2023/02/10 04:32:11;;;;;;;77.95;38.05;;;;;;;-6.88;78.67;102481.28;1439347;91;21334;-79
2023/02/10 04:34:38;;;;;;;91.85;50.52;;;;;;;-6.82;79.03;102474.50;1442478;90;22274;-78
2023/02/10 04:37:04;;;;;;;125.92;73.12;;;;;;;-6.77;78.77;102478.81;1439508;90;21863;-77
2023/02/10 04:39:30;;;;;;;131.45;73.78;;;;;;;-6.72;78.58;102484.44;1437353;90;21497;-78
2023/02/10 04:41:57;;;;;;;136.45;82.17;;;;;;;-6.67;78.82;102489.64;1442761;91;22367;-78
2023/02/10 04:44:23;;;;;;;172.22;107.67;;;;;;;-6.63;78.58;102493.95;1441589;90;21500;-78
2023/02/10 04:46:50;;;;;;;147.45;84.85;;;;;;;-6.58;78.64;102497.44;1435770;90;21350;-78
2023/02/10 04:49:17;;;;;;;120.33;68.07;;;;;;;-6.58;79.50;102500.01;1440760;90;21430;-80
2023/02/10 04:51:44;;;;;;;116.62;63.05;;;;;;;-6.63;79.23;102500.39;1422379;90;21393;-81
2023/02/10 04:54:10;;;;;;;102.92;51.00;;;;;;;-6.66;78.89;102505.52;1440222;90;21423;-80
2023/02/10 04:56:36;;;;;;;82.50;45.48;;;;;;;-6.66;78.52;102510.23;1436266;90;22316;-78
2023/02/10 04:59:03;;;;;;;89.50;44.70;;;;;;;-6.68;79.09;102516.22;1435590;90;21519;-80
2023/02/10 05:01:29;;;;;;;84.67;39.75;;;;;;;-6.83;80.82;102529.83;1435215;91;21436;-80
2023/02/10 05:03:55;;;;;;;75.37;40.83;;;;;;;-7.03;81.05;102533.50;1438149;90;22310;-80
2023/02/10 05:06:22;;;;;;;86.67;44.00;;;;;;;-7.09;80.56;102538.58;1438793;91;21420;-78
2023/02/10 05:08:49;;;;;;;91.37;46.08;;;;;;;-7.09;80.61;102550.16;1432028;91;21340;-79
2023/02/10 05:11:16;;;;;;;91.47;46.63;;;;;;;-7.11;80.01;102548.84;1414457;91;22332;-78
2023/02/10 05:13:44;;;;;;;95.57;48.70;;;;;;;-7.12;79.91;102552.28;1418748;91;21552;-80
2023/02/10 05:16:12;;;;;;;87.70;48.80;;;;;;;-7.11;79.26;102553.14;1440595;90;21379;-81
2023/02/10 05:18:39;;;;;;;84.13;44.93;;;;;;;-7.12;79.74;102552.70;1436166;90;21414;-81
2023/02/10 05:21:07;;;;;;;86.60;44.50;;;;;;;-7.15;78.97;102562.97;1435827;90;21371;-81
2023/02/10 05:23:33;;;;;;;88.20;45.43;;;;;;;-7.16;78.95;102559.94;1434058;90;21468;-80
2023/02/10 05:26:00;;;;;;;87.90;44.90;;;;;;;-7.15;78.97;102565.55;1424543;91;21503;-80
2023/02/10 05:28:27;;;;;;;84.42;44.38;;;;;;;-7.19;79.25;102568.91;1436492;90;22184;-80
2023/02/10 05:30:53;;;;;;;98.10;45.65;;;;;;;-7.27;79.77;102574.84;1431574;91;21481;-81
2023/02/10 05:33:20;;;;;;;87.02;43.38;;;;;;;-7.26;79.25;102572.70;1439693;91;21423;-80
2023/02/10 05:35:47;;;;;;;89.15;46.48;;;;;;;-7.31;78.84;102574.78;1434402;90;22487;-79
2023/02/10 05:38:13;;;;;;;86.67;43.85;;;;;;;-7.38;79.72;102583.28;1438772;91;21304;-79
2023/02/10 05:40:39;;;;;;;84.22;44.67;;;;;;;-7.46;79.20;102588.33;1439207;90;21541;-79
2023/02/10 05:43:07;;;;;;;89.72;43.65;;;;;;;-7.49;79.80;102590.86;1436065;91;21363;-78
2023/02/10 05:45:33;;;;;;;95.45;46.05;;;;;;;-7.49;78.80;102588.28;1433366;91;21333;-78
2023/02/10 05:48:00;;;;;;;86.25;44.45;;;;;;;-7.47;78.25;102587.03;1436413;90;22413;-78
2023/02/10 05:50:26;;;;;;;93.15;45.10;;;;;;;-7.45;77.87;102584.92;1444194;91;21379;-80
2023/02/10 05:52:52;;;;;;;95.10;46.45;;;;;;;-7.44;77.38;102585.36;1437246;90;21467;-79
2023/02/10 05:55:21;;;;;;;86.42;44.03;;;;;;;-7.45;77.29;102583.64;1429536;91;21579;-79
2023/02/10 05:57:47;;;;;;;96.40;47.05;;;;;;;-7.46;77.27;102583.17;1437791;91;21541;-77
2023/02/10 06:00:15;;;;;;;86.55;43.75;;;;;;;-7.52;78.07;102595.96;1432047;90;22310;-80
2023/02/10 06:02:41;;;;;;;87.00;42.95;;;;;;;-7.59;78.29;102596.31;1441812;90;21400;-82
2023/02/10 06:05:08;;;;;;;100.65;46.42;;;;;;;-7.61;78.39;102602.27;1436936;90;21523;-82
2023/02/10 06:07:34;;;;;;;85.50;43.75;;;;;;;-7.59;78.26;102595.45;1435661;90;21401;-81
2023/02/10 06:10:00;;;;;;;98.15;49.40;;;;;;;-7.54;78.41;102592.10;1432503;90;21868;-81
2023/02/10 06:12:28;;;;;;;92.25;46.42;;;;;;;-7.46;78.00;102594.75;1432192;91;21806;-82
2023/02/10 06:14:54;;;;;;;104.83;51.35;;;;;;;-7.40;77.72;102592.25;1424275;91;21856;-80
2023/02/10 06:17:27;;;;;;;111.72;49.60;;;;;;;-7.36;77.53;102594.47;1426800;91;21467;-78
2023/02/10 06:19:54;;;;;;;124.67;52.73;;;;;;;-7.31;77.97;102596.25;1433767;90;21379;-82
2023/02/10 06:22:20;;;;;;;117.47;55.20;;;;;;;-7.22;77.82;102595.50;1435613;91;21342;-83
2023/02/10 06:24:46;;;;;;;147.13;65.90;;;;;;;-7.14;77.60;102585.27;1435327;90;21482;-82
2023/02/10 06:27:14;;;;;;;138.70;64.92;;;;;;;-7.10;77.70;102578.05;1434799;90;22331;-84
2023/02/10 06:29:40;;;;;;;141.20;64.87;;;;;;;-7.06;78.11;102578.51;1440034;90;21385;-81
2023/02/10 06:32:06;;;;;;;229.03;99.37;;;;;;;-6.97;78.19;102581.18;1436778;90;21400;-81
2023/02/10 06:34:33;;;;;;;222.17;99.52;;;;;;;-6.88;78.24;102571.40;1435233;91;21334;-82
2023/02/10 06:36:59;;;;;;;195.32;91.15;;;;;;;-6.76;78.16;102574.52;1435406;91;21445;-81
2023/02/10 06:39:25;;;;;;;174.55;81.70;;;;;;;-6.64;78.74;102590.11;1437913;90;22257;-83
2023/02/10 06:41:51;;;;;;;173.00;82.90;;;;;;;-6.52;78.45;102583.78;1436911;90;21371;-82
2023/02/10 06:44:18;;;;;;;180.70;88.00;;;;;;;-6.42;78.58;102579.13;1414405;91;22243;-83
2023/02/10 06:46:44;;;;;;;167.80;80.72;;;;;;;-6.28;78.73;102586.13;1432708;90;22273;-83
2023/02/10 06:49:10;;;;;;;144.62;69.55;;;;;;;-6.18;78.59;102585.36;1435392;91;21371;-84
2023/02/10 06:51:36;;;;;;;143.50;71.60;;;;;;;-6.11;78.97;102593.55;1433440;90;21401;-84
2023/02/10 06:54:02;;;;;;;155.70;73.62;;;;;;;-6.09;79.14;102593.16;1421057;91;21393;-83
2023/02/10 06:56:28;;;;;;;160.20;76.77;;;;;;;-6.01;79.14;102591.89;1427614;90;21438;-85
2023/02/10 06:58:54;;;;;;;164.00;80.30;;;;;;;-5.91;79.13;102597.10;1431123;90;21873;-85
2023/02/10 07:01:21;;;;;;;150.27;73.87;;;;;;;-5.79;79.00;102600.62;1433163;91;21379;-85
2023/02/10 07:03:47;;;;;;;142.65;70.60;;;;;;;-5.68;79.26;102605.42;1438260;91;21393;-84
2023/02/10 07:06:13;;;;;;;151.70;76.92;;;;;;;-5.58;78.82;102598.18;1420423;91;21424;-84
2023/02/10 07:08:39;;;;;;;142.37;67.60;;;;;;;-5.38;78.60;102603.84;1439195;91;21319;-83
2023/02/10 07:11:06;;;;;;;112.55;54.77;;;;;;;-5.23;78.67;102599.63;1437552;91;21393;-83
2023/02/10 07:13:32;;;;;;;103.32;55.12;;;;;;;-5.06;78.38;102598.41;1434776;90;21556;-84
2023/02/10 07:15:58;;;;;;;95.92;50.60;;;;;;;-4.93;78.29;102595.84;1435785;90;21342;-84
2023/02/10 07:18:24;;;;;;;83.17;44.10;;;;;;;-4.79;78.24;102591.58;1436032;90;21378;-82
2023/02/10 07:20:51;;;;;;;90.28;47.10;;;;;;;-4.64;78.08;102599.34;1437462;90;21511;-83
2023/02/10 07:23:18;;;;;;;91.70;46.33;;;;;;;-4.58;77.82;102601.94;1419514;91;21355;-84
2023/02/10 07:25:44;;;;;;;99.90;48.80;;;;;;;-4.53;77.79;102601.95;1434946;91;22612;-85
2023/02/10 07:28:11;;;;;;;84.70;42.83;;;;;;;-4.44;77.88;102594.20;1419976;91;21445;-83
2023/02/10 07:30:38;;;;;;;89.97;46.40;;;;;;;-4.33;77.53;102587.75;1436988;90;21393;-83
2023/02/10 07:33:04;;;;;;;80.95;42.98;;;;;;;-4.22;77.94;102588.62;1437459;91;22383;-81
2023/02/10 07:35:31;;;;;;;79.60;44.60;;;;;;;-4.15;77.54;102583.86;1437529;90;21516;-85
2023/02/10 07:37:57;;;;;;;82.62;45.08;;;;;;;-4.06;77.34;102582.13;1434569;90;21334;-86
2023/02/10 07:40:23;;;;;;;90.65;48.78;;;;;;;-4.02;77.69;102577.41;1436239;90;21356;-84
2023/02/10 07:42:49;;;;;;;92.53;51.00;;;;;;;-3.95;77.83;102576.08;1430793;90;22517;-86
2023/02/10 07:45:16;;;;;;;86.28;45.55;;;;;;;-3.81;78.02;102574.77;1428921;90;21518;-80
2023/02/10 07:47:42;;;;;;;83.50;46.35;;;;;;;-3.72;77.61;102568.70;1437058;90;21371;-84
2023/02/10 07:50:08;;;;;;;82.40;48.87;;;;;;;-3.69;77.49;102563.08;1433435;91;21401;-82
2023/02/10 07:53:05;;;;;;;87.97;46.58;;;;;;;-3.60;77.45;102562.63;1434922;90;22300;-85
2023/02/10 07:55:32;;;;;;;88.80;47.35;;;;;;;-3.48;77.83;102556.11;1435795;90;21548;-87
2023/02/10 07:57:58;;;;;;;91.45;45.52;;;;;;;-3.29;77.48;102561.64;1432574;91;21364;-86
2023/02/10 08:00:24;;;;;;;85.40;44.65;;;;;;;-3.12;77.54;102562.86;1418467;91;21378;-85
2023/02/10 08:02:50;;;;;;;81.35;46.70;;;;;;;-2.99;77.03;102564.53;1419485;91;21530;-84
2023/02/10 08:05:17;;;;;;;92.33;44.25;;;;;;;-2.87;76.86;102563.59;1435216;91;21364;-86
2023/02/10 08:07:43;;;;;;;78.22;41.90;;;;;;;-2.72;76.42;102568.67;1430882;90;21552;-86
2023/02/10 08:10:09;;;;;;;82.70;45.15;;;;;;;-2.75;74.22;102562.21;1431793;91;21400;-84
2023/02/10 08:12:35;;;;;;;78.05;44.35;;;;;;;-2.68;74.93;102564.31;1440985;90;22540;-82
2023/02/10 08:15:01;;;;;;;79.55;41.00;;;;;;;-2.61;74.64;102566.45;1430585;91;22384;-82
2023/02/10 08:17:28;;;;;;;80.35;43.33;;;;;;;-2.50;74.90;102556.86;1432350;91;21342;-85
2023/02/10 08:19:57;;;;;;;83.92;45.40;;;;;;;-2.41;74.64;102560.67;1432817;90;21422;-86
2023/02/10 08:22:23;;;;;;;82.80;45.20;;;;;;;-2.27;74.41;102553.64;1435434;91;22013;-87
2023/02/10 08:24:50;;;;;;;87.17;48.02;;;;;;;-2.10;74.69;102562.98;1438656;90;22207;-87
2023/02/10 08:27:16;;;;;;;81.37;45.75;;;;;;;-1.97;73.87;102567.19;1434303;90;22429;-83
2023/02/10 08:29:42;;;;;;;79.40;44.58;;;;;;;-1.88;73.50;102567.53;1419952;91;22435;-85
2023/02/10 08:32:09;;;;;;;84.03;46.48;;;;;;;-1.84;72.48;102562.31;1434179;90;21437;-82
2023/02/10 08:34:36;;;;;;;83.95;43.78;;;;;;;-1.72;72.40;102566.51;1435131;90;21349;-83
2023/02/10 08:37:02;;;;;;;76.45;41.35;;;;;;;-1.64;72.17;102569.88;1438519;90;21355;-86
2023/02/10 08:39:30;;;;;;;71.30;43.20;;;;;;;-1.55;71.88;102565.44;1437431;90;21364;-86
2023/02/10 08:41:56;;;;;;;81.85;42.55;;;;;;;-1.40;71.99;102571.33;1439474;90;21610;-83
2023/02/10 08:44:23;;;;;;;85.35;46.63;;;;;;;-1.38;70.51;102574.77;1430126;91;22161;-86
2023/02/10 08:46:50;;;;;;;79.35;45.98;;;;;;;-1.34;70.01;102570.84;1435955;90;21356;-85
2023/02/10 08:49:16;;;;;;;81.30;45.67;;;;;;;-1.27;70.32;102572.46;1437355;90;21430;-83
2023/02/10 08:51:42;;;;;;;83.82;45.58;;;;;;;-1.25;70.09;102562.48;1430933;91;22383;-84
2023/02/10 08:54:09;;;;;;;82.70;45.67;;;;;;;-1.17;69.39;102563.69;1434595;90;22532;-87
2023/02/10 08:56:36;;;;;;;79.82;44.05;;;;;;;-1.05;69.72;102562.66;1430712;90;21417;-86
2023/02/10 08:59:05;;;;;;;81.78;44.85;;;;;;;-0.96;68.90;102563.38;1430043;90;21528;-86
2023/02/10 09:01:31;;;;;;;84.50;46.98;;;;;;;-0.79;69.44;102564.89;1430443;90;21526;-86
2023/02/10 09:03:57;;;;;;;82.60;46.80;;;;;;;-0.67;69.40;102573.80;1427493;91;21445;-82
2023/02/10 09:06:40;;;;;;;83.12;46.00;;;;;;;-0.55;69.23;102572.75;1440024;90;21377;-86
2023/02/10 09:09:16;;;;;;;84.95;47.62;;;;;;;-0.41;68.37;102572.54;1361782;88;21356;-87
2023/02/10 09:11:42;;;;;;;80.22;45.25;;;;;;;-0.39;67.79;102574.23;1516756;91;21335;-88
2023/02/10 09:14:09;;;;;;;82.47;47.00;;;;;;;-0.26;68.69;102578.78;1363643;90;22193;-87
2023/02/10 09:16:36;;;;;;;74.30;43.38;;;;;;;-0.18;67.50;102581.27;1369901;91;21209;-82
2023/02/10 09:19:03;;;;;;;66.82;39.35;;;;;;;-0.06;67.74;102587.55;1363963;91;21290;-85
2023/02/10 09:21:30;;;;;;;61.90;36.33;;;;;;;0.11;67.64;102588.56;1363789;90;22140;-86
2023/02/10 09:23:57;;;;;;;66.90;37.03;;;;;;;0.29;68.19;102586.95;1363610;90;21253;-84
2023/02/10 09:26:23;;;;;;;67.30;35.33;;;;;;;0.48;64.78;102592.64;1369181;90;21334;-84
2023/02/10 09:28:49;;;;;;;58.00;33.33;;;;;;;0.64;64.56;102604.49;1516594;91;21323;-82
2023/02/10 09:31:16;;;;;;;51.67;28.23;;;;;;;0.89;65.74;102602.25;1364388;90;21483;-85
2023/02/10 09:33:43;;;;;;;53.20;28.47;;;;;;;1.23;65.69;102600.19;1349824;92;21504;-89
2023/02/10 09:36:20;;;;;;;49.73;28.43;;;;;;;1.71;60.20;102594.72;1362819;91;22557;-81
2023/02/10 09:38:46;;;;;;;56.10;31.93;;;;;;;2.33;60.44;102593.13;1368725;91;22537;-87
2023/02/10 09:41:34;;;;;;;42.93;24.60;;;;;;;3.89;58.11;102591.02;1364029;90;21609;-87
2023/02/10 09:44:27;;;;;;;43.77;26.33;;;;;;;3.89;58.11;102591.02;1368607;91;21974;-86
2023/02/10 09:47:14;;;;;;;40.23;25.83;;;;;;;4.59;53.42;102590.76;1510815;90;22058;-86
2023/02/10 09:50:03;;;;;;;40.67;24.57;;;;;;;5.20;53.11;102593.68;1409676;90;21616;-88
2023/02/10 09:53:10;;;;;;;47.77;26.47;;;;;;;5.46;51.95;102579.98;1440007;90;21378;-84
2023/02/10 09:55:51;;;;;;;39.63;24.53;;;;;;;6.03;51.02;102577.20;1439944;90;22380;-84
2023/02/10 09:58:26;;;;;;;34.85;22.62;;;;;;;6.41;47.74;102570.72;1435382;91;21431;-86
2023/02/10 10:01:00;;;;;;;36.83;24.60;;;;;;;6.29;45.32;102574.28;1441448;91;21629;-83
2023/02/10 10:03:50;;;;;;;36.13;24.47;;;;;;;5.99;48.26;102569.06;1435908;91;21540;-84
2023/02/10 10:06:33;;;;;;;36.50;23.47;;;;;;;6.38;47.48;102567.76;1430774;91;21497;-83
2023/02/10 10:09:17;;;;;;;34.87;22.10;;;;;;;6.51;43.59;102558.87;1438859;90;21342;-82
2023/02/10 10:11:52;;;;;;;44.03;28.50;;;;;;;6.67;42.98;102552.44;1432109;91;21564;-81
2023/02/10 10:14:27;;;;;;;35.00;23.53;;;;;;;6.94;45.39;102551.64;1431229;90;21379;-88
2023/02/10 10:17:25;;;;;;;29.97;20.97;;;;;;;6.71;44.03;102560.13;1432353;90;21628;-85
2023/02/10 10:20:17;;;;;;;35.23;20.13;;;;;;;6.63;43.92;102553.05;1429923;89;21548;-85
2023/02/10 10:22:52;;;;;;;33.20;21.47;;;;;;;6.52;45.12;102550.05;1436064;90;21489;-83
2023/02/10 10:25:45;;;;;;;41.63;24.33;;;;;;;5.99;44.78;102544.94;1437761;91;21312;-83
2023/02/10 10:28:32;;;;;;;39.60;23.97;;;;;;;5.31;43.27;102549.48;1432710;91;21430;-82
2023/02/10 10:31:21;;;;;;;37.27;24.40;;;;;;;5.28;45.47;102547.44;1435578;90;21474;-84
2023/02/10 10:34:09;;;;;;;37.43;23.17;;;;;;;5.51;45.14;102543.88;1429341;90;21552;-84
2023/02/10 10:36:40;;;;;;;26.53;18.20;;;;;;;5.97;45.94;102557.28;1434278;91;21396;-83
2023/02/10 10:39:40;;;;;;;30.77;21.27;;;;;;;6.19;45.13;102551.95;1434507;91;21407;-83
2023/02/10 10:42:18;;;;;;;34.73;21.37;;;;;;;6.00;42.47;102547.09;1432163;90;21592;-82
2023/02/10 10:44:48;;;;;;;23.18;15.80;;;;;;;6.18;44.11;102548.06;1410041;91;21459;-83
2023/02/10 10:47:26;;;;;;;32.00;17.80;;;;;;;6.20;44.14;102544.45;1432208;91;21334;-82
2023/02/10 10:49:52;;;;;;;27.23;16.53;;;;;;;6.06;42.16;102542.42;1424296;91;21422;-82
2023/02/10 10:52:35;;;;;;;26.20;16.50;;;;;;;5.83;40.64;102535.95;1436865;91;21333;-84
2023/02/10 10:55:15;;;;;;;25.97;17.50;;;;;;;5.77;41.01;102527.88;1439050;91;21407;-82
2023/02/10 10:57:42;;;;;;;28.85;18.65;;;;;;;5.68;41.92;102517.76;1409418;91;21599;-83
2023/02/10 11:00:22;;;;;;;24.43;15.33;;;;;;;5.68;41.92;102517.76;1432759;91;22363;-83
2023/02/10 11:03:02;;;;;;;24.80;16.32;;;;;;;5.45;41.32;102536.26;1438082;90;21583;-84
2023/02/10 11:05:38;;;;;;;27.40;16.23;;;;;;;5.63;41.51;102528.45;1435862;90;21452;-83
2023/02/10 11:08:06;;;;;;;26.00;17.40;;;;;;;5.70;41.92;102522.50;1444715;90;22517;-84
2023/02/10 11:10:49;;;;;;;25.37;16.50;;;;;;;5.57;41.54;102525.23;1430144;91;22377;-83
2023/02/10 11:13:23;;;;;;;24.13;16.50;;;;;;;5.87;42.99;102518.69;1431588;90;22040;-82
2023/02/10 11:15:51;;;;;;;24.17;16.60;;;;;;;5.82;40.58;102518.03;1434532;90;21371;-81
2023/02/10 11:18:22;;;;;;;25.97;17.37;;;;;;;6.11;42.33;102518.57;1435366;90;21605;-87
2023/02/10 11:20:57;;;;;;;;;;;;;;;6.12;42.39;102513.69;1437871;90;21393;-87